createdAt,value
2019-04-01T00:01:19.432Z,99.90
2019-04-01T00:03:51.163Z,99.90
2019-04-01T00:06:22.913Z,99.90
2019-04-01T00:08:54.728Z,99.90
2019-04-01T00:11:26.343Z,99.90
2019-04-01T00:13:58.063Z,99.90
2019-04-01T00:16:29.858Z,99.90
2019-04-01T00:19:03.433Z,99.90
2019-04-01T00:21:35.298Z,99.90
2019-04-01T00:24:07.057Z,99.90
2019-04-01T00:26:38.758Z,99.90
2019-04-01T00:29:10.352Z,99.90
2019-04-01T00:31:42.214Z,99.90
2019-04-01T00:34:14.204Z,99.90
2019-04-01T00:36:46.023Z,99.90
2019-04-01T00:39:18.426Z,99.90
2019-04-01T00:42:11.758Z,99.90
2019-04-01T00:44:43.549Z,99.90
2019-04-01T00:47:15.313Z,99.90
2019-04-01T00:49:47.121Z,99.90
2019-04-01T00:52:18.868Z,99.90
2019-04-01T00:54:50.566Z,99.90
2019-04-01T00:57:29.819Z,99.90
2019-04-01T01:00:01.483Z,99.90
2019-04-01T01:02:36.312Z,99.90
2019-04-01T01:05:08.287Z,99.90
2019-04-01T01:07:48.865Z,99.90
2019-04-01T01:10:20.915Z,99.90
2019-04-01T01:13:01.968Z,99.90
2019-04-01T01:15:33.809Z,99.90
2019-04-01T01:18:08.625Z,99.90
2019-04-01T01:20:40.732Z,99.90
2019-04-01T01:23:18.488Z,99.90
2019-04-01T01:25:52.116Z,99.90
2019-04-01T01:28:30.574Z,99.90
2019-04-01T01:31:02.606Z,99.90
2019-04-01T01:33:42.245Z,99.90
2019-04-01T01:36:13.989Z,99.90
2019-04-01T01:38:49.033Z,99.90
2019-04-01T01:41:21.313Z,99.90
2019-04-01T01:44:05.475Z,99.90
2019-04-01T01:46:37.226Z,99.90
2019-04-01T01:49:09.204Z,99.90
2019-04-01T01:51:40.996Z,99.90
2019-04-01T01:54:20.489Z,99.90
2019-04-01T01:56:52.887Z,99.90
2019-04-01T01:59:33.015Z,99.90
2019-04-01T02:02:05.040Z,99.90
2019-04-01T02:04:47.658Z,99.90
2019-04-01T02:07:19.414Z,99.90
2019-04-01T02:09:58.711Z,99.90
2019-04-01T02:12:30.551Z,99.90
2019-04-01T02:15:02.596Z,99.90
2019-04-01T02:17:34.385Z,99.90
2019-04-01T02:20:15.200Z,99.90
2019-04-01T02:22:47.002Z,99.90
2019-04-01T02:25:27.760Z,99.90
2019-04-01T02:27:59.421Z,99.90
2019-04-01T02:30:31.267Z,99.90
2019-04-01T02:33:02.908Z,99.90
2019-04-01T02:35:42.575Z,99.90
2019-04-01T02:38:14.979Z,99.90
2019-04-01T02:40:59.269Z,99.90
2019-04-01T02:43:33.872Z,99.90
2019-04-01T02:46:05.739Z,99.90
2019-04-01T02:48:37.295Z,99.90
2019-04-01T02:51:16.560Z,99.90
2019-04-01T02:53:48.329Z,99.90
2019-04-01T02:56:26.126Z,99.90
2019-04-01T02:58:57.780Z,99.90
2019-04-01T03:01:37.060Z,99.90
2019-04-01T03:04:08.815Z,99.90
2019-04-01T03:06:47.943Z,99.90
2019-04-01T03:09:19.839Z,99.90
2019-04-01T03:11:58.455Z,99.90
2019-04-01T03:14:30.248Z,99.90
2019-04-01T03:17:11.325Z,99.90
2019-04-01T03:19:43.365Z,99.90
2019-04-01T03:22:15.317Z,99.90
2019-04-01T03:24:47.081Z,99.90
2019-04-01T03:27:18.787Z,99.90
2019-04-01T03:29:50.464Z,99.90
2019-04-01T03:32:22.121Z,99.90
2019-04-01T03:34:54.066Z,99.90
2019-04-01T03:37:26.001Z,99.90
2019-04-01T03:39:57.956Z,99.90
2019-04-01T03:42:29.681Z,99.90
2019-04-01T03:45:01.399Z,99.90
2019-04-01T03:47:33.226Z,99.90
2019-04-01T03:50:05.179Z,99.90
2019-04-01T03:52:36.841Z,99.90
2019-04-01T03:55:08.648Z,99.90
2019-04-01T03:57:40.586Z,99.90
2019-04-01T04:00:12.731Z,99.90
2019-04-01T04:02:44.186Z,99.90
2019-04-01T04:05:15.962Z,99.90
2019-04-01T04:07:47.940Z,99.90
2019-04-01T04:10:26.087Z,99.90
2019-04-01T04:12:58.114Z,99.90
2019-04-01T04:15:29.852Z,99.90
2019-04-01T04:18:01.574Z,99.90
2019-04-01T04:20:33.176Z,99.90
2019-04-01T04:23:05.081Z,99.90
2019-04-01T04:25:36.944Z,99.90
2019-04-01T04:28:08.943Z,99.90
2019-04-01T04:30:40.859Z,99.90
2019-04-01T04:33:13.041Z,99.90
2019-04-01T04:35:44.659Z,99.90
2019-04-01T04:38:16.573Z,99.90
2019-04-01T04:40:48.236Z,99.90
2019-04-01T04:43:20.300Z,99.90
2019-04-01T04:45:52.015Z,99.90
2019-04-01T04:48:23.725Z,99.90
2019-04-01T04:50:55.461Z,99.90
2019-04-01T04:53:27.527Z,99.90
2019-04-01T04:55:59.530Z,99.90
2019-04-01T04:58:31.398Z,99.90
2019-04-01T05:01:03.366Z,99.90
2019-04-01T05:03:36.046Z,99.90
2019-04-01T05:06:08.025Z,99.90
2019-04-01T05:08:40.662Z,99.90
2019-04-01T05:11:12.255Z,99.90
2019-04-01T05:13:44.068Z,99.90
2019-04-01T05:16:15.838Z,99.90
2019-04-01T05:18:48.041Z,99.90
2019-04-01T05:21:20.283Z,99.90
2019-04-01T05:23:54.994Z,99.90
2019-04-01T05:26:28.794Z,99.90
2019-04-01T05:32:54.863Z,99.90
2019-04-01T05:35:27.489Z,99.90
2019-04-01T05:37:59.663Z,99.90
2019-04-01T05:40:31.765Z,99.90
2019-04-01T05:43:03.879Z,99.90
2019-04-01T05:45:36.135Z,99.90
2019-04-01T05:48:09.091Z,99.90
2019-04-01T05:50:41.450Z,99.90
2019-04-01T05:53:13.277Z,99.90
2019-04-01T05:55:45.332Z,99.90
2019-04-01T05:58:17.232Z,99.90
2019-04-01T06:01:11.672Z,99.90
2019-04-01T06:03:43.589Z,99.90
2019-04-01T06:06:15.363Z,99.90
2019-04-01T06:08:47.260Z,99.90
2019-04-01T06:11:19.011Z,99.90
2019-04-01T06:13:50.902Z,99.90
2019-04-01T06:16:22.885Z,99.90
2019-04-01T06:18:54.700Z,99.90
2019-04-01T06:21:26.763Z,99.90
2019-04-01T06:23:59.181Z,99.90
2019-04-01T06:26:31.611Z,99.90
2019-04-01T06:29:03.803Z,99.90
2019-04-01T06:31:35.704Z,99.90
2019-04-01T06:34:07.680Z,99.90
2019-04-01T06:36:40.016Z,99.90
2019-04-01T06:39:11.980Z,99.90
2019-04-01T06:41:44.603Z,99.90
2019-04-01T06:44:16.582Z,99.90
2019-04-01T06:46:48.907Z,99.90
2019-04-01T06:49:21.826Z,99.90
2019-04-01T06:51:53.823Z,99.90
2019-04-01T06:54:25.849Z,99.90
2019-04-01T06:56:57.764Z,99.90
2019-04-01T06:59:32.633Z,99.90
2019-04-01T07:02:04.706Z,99.90
2019-04-01T07:04:48.941Z,99.90
2019-04-01T07:07:20.985Z,99.90
2019-04-01T07:09:55.677Z,99.90
2019-04-01T07:12:28.220Z,99.90
2019-04-01T07:15:08.044Z,99.90
2019-04-01T07:17:39.773Z,99.90
2019-04-01T07:20:12.224Z,99.90
2019-04-01T07:22:44.148Z,99.90
2019-04-01T07:25:28.702Z,99.90
2019-04-01T07:28:02.700Z,99.90
2019-04-01T07:30:34.794Z,99.90
2019-04-01T07:33:06.701Z,99.90
2019-04-01T07:35:47.940Z,99.90
2019-04-01T07:38:20.413Z,99.90
2019-04-01T07:40:59.364Z,99.90
2019-04-01T07:43:32.412Z,99.90
2019-04-01T07:46:07.982Z,99.90
2019-04-01T07:48:38.270Z,99.90
2019-04-01T07:51:13.278Z,99.90
2019-04-01T07:53:45.137Z,99.90
2019-04-01T07:56:29.316Z,99.90
2019-04-01T07:59:01.341Z,99.90
2019-04-01T08:01:36.455Z,99.90
2019-04-01T08:04:25.705Z,99.90
2019-04-01T08:06:57.736Z,99.90
2019-04-01T08:09:29.779Z,99.90
2019-04-01T08:12:01.588Z,99.40
2019-04-01T08:14:33.808Z,99.00
2019-04-01T08:17:06.152Z,98.60
2019-04-01T08:19:49.230Z,98.50
2019-04-01T08:22:21.909Z,98.10
2019-04-01T08:24:53.839Z,97.40
2019-04-01T08:27:25.967Z,96.50
2019-04-01T08:29:57.613Z,95.80
2019-04-01T08:32:32.371Z,94.90
2019-04-01T08:35:04.764Z,94.80
2019-04-01T08:37:40.223Z,94.70
2019-04-01T08:40:12.277Z,94.90
2019-04-01T08:42:44.029Z,94.20
2019-04-01T08:45:17.189Z,93.60
2019-04-01T08:47:51.896Z,92.50
2019-04-01T08:50:25.298Z,91.00
2019-04-01T08:52:57.233Z,90.60
2019-04-01T08:55:29.472Z,90.20
2019-04-01T08:58:01.850Z,89.10
2019-04-01T09:00:33.590Z,87.40
2019-04-01T09:03:05.436Z,85.90
2019-04-01T09:05:37.842Z,84.00
2019-04-01T09:08:13.002Z,80.50
2019-04-01T09:10:45.707Z,78.20
2019-04-01T09:13:20.057Z,73.20
2019-04-01T09:15:52.034Z,73.10
2019-04-01T09:18:23.877Z,70.00
2019-04-01T09:20:55.591Z,69.40
2019-04-01T09:23:27.874Z,69.00
2019-04-01T09:25:59.698Z,67.50
2019-04-01T09:28:32.481Z,64.20
2019-04-01T09:31:04.454Z,58.60
2019-04-01T09:33:36.242Z,57.40
2019-04-01T09:36:08.856Z,55.10
2019-04-01T09:38:42.395Z,54.30
2019-04-01T09:41:14.223Z,53.60
2019-04-01T09:43:46.758Z,52.80
2019-04-01T09:46:19.790Z,51.00
2019-04-01T09:48:51.965Z,51.90
2019-04-01T09:51:24.021Z,50.80
2019-04-01T09:53:56.159Z,51.30
2019-04-01T09:56:28.395Z,50.40
2019-04-01T09:59:00.714Z,50.10
2019-04-01T10:01:32.606Z,49.80
2019-04-01T10:04:05.783Z,48.30
2019-04-01T10:06:45.373Z,47.40
2019-04-01T10:09:17.219Z,47.00
2019-04-01T10:11:55.973Z,46.40
2019-04-01T10:14:28.368Z,46.60
2019-04-01T10:17:07.980Z,46.20
2019-04-01T10:19:39.925Z,46.10
2019-04-01T10:22:18.596Z,44.70
2019-04-01T10:24:50.983Z,44.80
2019-04-01T10:27:26.018Z,46.00
2019-04-01T10:29:58.089Z,44.50
2019-04-01T10:32:35.937Z,44.40
2019-04-01T10:35:10.238Z,43.50
2019-04-01T10:37:48.937Z,44.00
2019-04-01T10:40:21.167Z,44.40
2019-04-01T10:43:04.539Z,44.60
2019-04-01T10:45:36.857Z,44.20
2019-04-01T10:48:12.297Z,44.20
2019-04-01T10:50:45.396Z,42.70
2019-04-01T10:53:17.987Z,41.80
2019-04-01T10:55:51.211Z,41.90
2019-04-01T10:58:31.849Z,42.70
2019-04-01T11:01:04.541Z,40.90
2019-04-01T11:03:39.813Z,40.20
2019-04-01T11:06:14.072Z,41.10
2019-04-01T11:08:53.909Z,40.00
2019-04-01T11:11:27.376Z,40.00
2019-04-01T11:13:59.632Z,39.00
2019-04-01T11:16:32.086Z,39.30
2019-04-01T11:19:05.018Z,38.50
2019-04-01T11:21:37.081Z,38.40
2019-04-01T11:24:10.144Z,38.40
2019-04-01T11:26:43.064Z,37.80
2019-04-01T11:29:15.006Z,37.80
2019-04-01T11:31:47.970Z,36.60
2019-04-01T11:34:21.515Z,36.80
2019-04-01T11:36:56.714Z,37.30
2019-04-01T11:39:28.945Z,36.30
2019-04-01T11:42:01.541Z,36.50
2019-04-01T11:44:33.491Z,36.00
2019-04-01T11:47:10.101Z,35.60
2019-04-01T11:49:42.391Z,35.60
2019-04-01T11:52:32.634Z,35.80
2019-04-01T11:55:06.554Z,35.50
2019-04-01T11:57:40.576Z,34.60
2019-04-01T12:00:16.694Z,35.50
2019-04-01T12:02:48.809Z,34.70
2019-04-01T12:05:21.879Z,35.40
2019-04-01T12:07:55.327Z,35.20
2019-04-01T12:10:27.796Z,34.50
2019-04-01T12:13:11.745Z,34.40
2019-04-01T12:15:44.146Z,34.60
2019-04-01T12:18:17.982Z,34.60
2019-04-01T12:20:49.935Z,33.90
2019-04-01T12:23:22.237Z,32.70
2019-04-01T12:25:53.867Z,34.00
2019-04-01T12:28:43.628Z,34.90
2019-04-01T12:31:18.931Z,33.20
2019-04-01T12:33:50.906Z,33.80
2019-04-01T12:36:22.917Z,33.50
2019-04-01T12:38:55.367Z,32.80
2019-04-01T12:41:28.414Z,32.90
2019-04-01T12:44:04.185Z,31.50
2019-04-01T12:46:36.827Z,31.50
2019-04-01T12:49:26.870Z,31.90
2019-04-01T12:51:58.775Z,33.20
2019-04-01T12:54:31.383Z,33.80
2019-04-01T12:57:03.541Z,33.40
2019-04-01T12:59:38.653Z,33.10
2019-04-01T13:02:10.527Z,34.10
2019-04-01T13:04:47.369Z,32.80
2019-04-01T13:07:20.628Z,32.40
2019-04-01T13:10:03.161Z,32.40
2019-04-01T13:12:35.349Z,32.30
2019-04-01T13:15:08.841Z,33.40
2019-04-01T13:17:45.137Z,33.80
2019-04-01T13:20:17.320Z,34.70
2019-04-01T13:22:49.142Z,32.90
2019-04-01T13:25:29.151Z,33.30
2019-04-01T13:28:01.118Z,32.00
2019-04-01T13:30:55.249Z,31.50
2019-04-01T13:33:28.069Z,32.30
2019-04-01T13:36:00.172Z,31.80
2019-04-01T13:38:32.449Z,33.40
2019-04-01T13:41:04.482Z,33.70
2019-04-01T13:43:36.521Z,32.50
2019-04-01T13:46:14.849Z,33.50
2019-04-01T13:48:57.632Z,32.70
2019-04-01T13:51:23.787Z,33.80
2019-04-01T13:54:07.940Z,34.10
2019-04-01T13:56:30.118Z,33.20
2019-04-01T13:59:04.075Z,33.10
2019-04-01T14:01:39.176Z,34.10
2019-04-01T14:04:11.969Z,33.00
2019-04-01T14:06:57.718Z,33.50
2019-04-01T14:09:30.982Z,32.60
2019-04-01T14:12:07.463Z,32.30
2019-04-01T14:14:40.914Z,32.40
2019-04-01T14:17:12.864Z,33.10
2019-04-01T14:19:48.021Z,32.50
2019-04-01T14:22:23.342Z,32.80
2019-04-01T14:24:55.666Z,34.70
2019-04-01T14:27:30.588Z,33.80
2019-04-01T14:30:05.649Z,33.50
2019-04-01T14:32:44.461Z,33.30
2019-04-01T14:35:17.006Z,33.40
2019-04-01T14:37:58.475Z,33.60
2019-04-01T14:40:32.608Z,32.90
2019-04-01T14:43:09.841Z,33.80
2019-04-01T14:45:42.304Z,35.00
2019-04-01T14:48:17.561Z,35.50
2019-04-01T14:50:54.129Z,34.80
2019-04-01T14:53:30.280Z,34.20
2019-04-01T14:56:02.762Z,34.50
2019-04-01T14:58:37.830Z,34.70
2019-04-01T15:01:10.460Z,34.40
2019-04-01T15:03:46.791Z,34.70
2019-04-01T15:06:20.140Z,33.30
2019-04-01T15:08:52.007Z,36.30
2019-04-01T15:11:24.588Z,35.10
2019-04-01T15:13:59.921Z,35.50
2019-04-01T15:16:30.596Z,35.80
2019-04-01T15:19:03.207Z,37.50
2019-04-01T15:21:35.590Z,35.20
2019-04-01T15:24:07.558Z,35.20
2019-04-01T15:26:39.344Z,34.70
2019-04-01T15:29:11.470Z,35.70
2019-04-01T15:31:45.150Z,35.90
2019-04-01T15:34:19.360Z,36.10
2019-04-01T15:36:51.553Z,37.30
2019-04-01T15:39:23.459Z,37.10
2019-04-01T15:41:55.387Z,36.80
2019-04-01T15:44:29.462Z,36.20
2019-04-01T15:47:04.499Z,38.20
2019-04-01T15:49:36.977Z,38.60
2019-04-01T15:52:09.623Z,38.00
2019-04-01T15:54:41.739Z,39.10
2019-04-01T15:57:15.204Z,37.30
2019-04-01T15:59:47.221Z,37.80
2019-04-01T16:02:19.225Z,38.60
2019-04-01T16:04:51.264Z,38.30
2019-04-01T16:07:23.193Z,38.80
2019-04-01T16:09:54.992Z,37.40
2019-04-01T16:12:27.705Z,38.00
2019-04-01T16:14:59.906Z,38.30
2019-04-01T16:17:32.195Z,38.10
2019-04-01T16:20:05.689Z,38.20
2019-04-01T16:22:38.222Z,39.00
2019-04-01T16:25:13.215Z,38.70
2019-04-01T16:27:46.044Z,39.20
2019-04-01T16:30:18.424Z,39.70
2019-04-01T16:32:50.752Z,39.90
2019-04-01T16:35:23.417Z,40.60
2019-04-01T16:37:59.353Z,41.10
2019-04-01T16:40:30.987Z,41.40
2019-04-01T16:43:03.741Z,42.00
2019-04-01T16:45:36.512Z,42.50
2019-04-01T16:48:09.421Z,43.10
2019-04-01T16:50:42.408Z,43.50
2019-04-01T16:53:17.645Z,44.00
2019-04-01T16:56:08.350Z,43.80
2019-04-01T16:58:44.478Z,44.30
2019-04-01T17:01:19.478Z,45.30
2019-04-01T17:03:54.485Z,48.10
2019-04-01T17:06:29.253Z,49.80
2019-04-01T17:09:01.186Z,51.80
2019-04-01T17:11:36.049Z,53.30
2019-04-01T17:14:09.337Z,55.10
2019-04-01T17:16:41.782Z,56.50
2019-04-01T17:19:14.225Z,57.30
2019-04-01T17:21:46.995Z,58.30
2019-04-01T17:24:19.374Z,59.00
2019-04-01T17:27:17.085Z,59.50
2019-04-01T17:29:49.528Z,60.10
2019-04-01T17:32:22.482Z,60.10
2019-04-01T17:34:54.909Z,58.40
2019-04-01T17:37:27.398Z,59.00
2019-04-01T17:39:59.737Z,58.80
2019-04-01T17:42:33.350Z,60.00
2019-04-01T17:45:32.006Z,60.00
2019-04-01T17:48:05.103Z,60.60
2019-04-01T17:50:38.144Z,60.20
2019-04-01T17:53:12.632Z,60.40
2019-04-01T17:55:45.722Z,61.00
2019-04-01T17:58:19.198Z,60.70
2019-04-01T18:00:56.466Z,60.50
2019-04-01T18:03:28.701Z,61.60
2019-04-01T18:06:01.600Z,61.90
2019-04-01T18:08:34.247Z,62.00
2019-04-01T18:11:07.718Z,62.00
2019-04-01T18:13:40.654Z,63.50
2019-04-01T18:16:14.028Z,63.30
2019-04-01T18:18:46.371Z,62.80
2019-04-01T18:21:18.871Z,62.70
2019-04-01T18:23:51.602Z,61.60
2019-04-01T18:26:24.941Z,61.70
2019-04-01T18:28:57.012Z,61.50
2019-04-01T18:31:29.342Z,61.70
2019-04-01T18:34:01.829Z,62.10
2019-04-01T18:36:35.015Z,64.00
2019-04-01T18:39:10.436Z,67.90
2019-04-01T18:41:43.494Z,69.60
2019-04-01T18:44:18.635Z,70.70
2019-04-01T18:46:54.365Z,71.00
2019-04-01T18:49:28.659Z,71.10
2019-04-01T18:52:00.972Z,69.70
2019-04-01T18:54:34.396Z,69.20
2019-04-01T18:57:12.414Z,69.60
2019-04-01T18:59:44.817Z,69.60
2019-04-01T19:02:25.128Z,69.80
2019-04-01T19:04:59.222Z,69.80
2019-04-01T19:07:35.311Z,69.80
2019-04-01T19:10:14.496Z,70.10
2019-04-01T19:13:04.697Z,71.00
2019-04-01T19:15:29.783Z,72.10
2019-04-01T19:18:11.287Z,75.70
2019-04-01T19:20:56.086Z,77.00
2019-04-01T19:23:23.464Z,76.20
2019-04-01T19:26:01.527Z,75.20
2019-04-01T19:28:34.619Z,75.30
2019-04-01T19:31:09.942Z,76.40
2019-04-01T19:33:46.962Z,80.40
2019-04-01T19:36:23.100Z,82.80
2019-04-01T19:38:57.248Z,85.00
2019-04-01T19:41:33.812Z,89.40
2019-04-01T19:44:07.906Z,92.70
2019-04-01T19:46:45.013Z,94.80
2019-04-01T19:49:20.877Z,95.60
2019-04-01T19:52:01.688Z,95.90
2019-04-01T19:54:38.968Z,93.40
2019-04-01T19:57:14.876Z,92.40
2019-04-01T19:59:49.939Z,92.00
2019-04-01T20:02:26.423Z,91.90
2019-04-01T20:05:02.075Z,92.50
2019-04-01T20:07:38.079Z,91.80
2019-04-01T20:10:12.514Z,91.90
2019-04-01T20:12:57.159Z,92.00
2019-04-01T20:15:30.672Z,93.20
2019-04-01T20:18:05.456Z,97.60
2019-04-01T20:20:42.705Z,99.90
2019-04-01T20:23:18.032Z,99.90
2019-04-01T20:25:56.257Z,99.90
2019-04-01T20:28:33.730Z,99.90
2019-04-01T20:31:08.205Z,99.90
2019-04-01T20:33:49.166Z,99.90
2019-04-01T20:36:28.694Z,99.40
2019-04-01T20:39:00.992Z,98.50
2019-04-01T20:41:36.267Z,98.50
2019-04-01T20:44:12.419Z,98.30
2019-04-01T20:46:45.863Z,98.20
2019-04-01T20:49:18.736Z,98.40
2019-04-01T20:51:54.795Z,99.00
2019-04-01T20:54:29.442Z,98.60
2019-04-01T20:57:04.995Z,98.70
2019-04-01T20:59:38.734Z,98.90
2019-04-01T21:02:13.545Z,99.30
2019-04-01T21:04:47.773Z,99.50
2019-04-01T21:07:22.980Z,99.70
2019-04-01T21:09:58.584Z,99.20
2019-04-01T21:12:31.913Z,99.40
2019-04-01T21:15:07.243Z,99.90
2019-04-01T21:17:40.585Z,99.90
2019-04-01T21:20:16.319Z,99.90
2019-04-01T21:22:51.450Z,99.90
2019-04-01T21:25:26.129Z,99.90
2019-04-01T21:28:00.944Z,99.90
2019-04-01T21:30:34.551Z,99.90
2019-04-01T21:33:09.003Z,99.90
2019-04-01T21:35:44.622Z,99.90
2019-04-01T21:38:17.993Z,99.90
2019-04-01T21:40:52.054Z,99.90
2019-04-01T21:43:30.522Z,99.90
2019-04-01T21:46:03.922Z,99.90
2019-04-01T21:48:39.257Z,99.90
2019-04-01T21:51:12.842Z,99.90
2019-04-01T21:53:47.390Z,99.90
2019-04-01T21:56:21.117Z,99.90
2019-04-01T21:58:54.680Z,99.90
2019-04-01T22:01:28.327Z,99.90
2019-04-01T22:04:03.838Z,99.90
2019-04-01T22:06:38.374Z,99.90
2019-04-01T22:09:14.349Z,99.90
2019-04-01T22:11:47.473Z,99.90
2019-04-01T22:14:25.128Z,99.90
2019-04-01T22:17:02.058Z,99.90
2019-04-01T22:19:38.388Z,99.90
2019-04-01T22:22:15.237Z,99.90
2019-04-01T22:24:49.301Z,99.90
2019-04-01T22:27:24.896Z,99.90
2019-04-01T22:29:58.326Z,99.90
2019-04-01T22:32:32.786Z,99.90
2019-04-01T22:35:07.984Z,99.90
2019-04-01T22:37:41.489Z,99.90
2019-04-01T22:40:16.229Z,99.90
2019-04-01T22:42:51.223Z,99.90
2019-04-01T22:45:24.783Z,99.90
2019-04-01T22:47:58.026Z,99.90
2019-04-01T22:50:29.829Z,99.90
2019-04-01T22:53:01.910Z,99.90
2019-04-01T22:55:33.573Z,99.90
2019-04-01T22:58:05.454Z,99.90
2019-04-01T23:00:39.871Z,99.90
2019-04-01T23:03:11.907Z,99.90
2019-04-01T23:05:43.635Z,99.90
2019-04-01T23:08:15.675Z,99.90
2019-04-01T23:10:47.528Z,99.90
2019-04-01T23:13:20.157Z,99.90
2019-04-01T23:15:52.314Z,99.90
2019-04-01T23:18:23.939Z,99.90
2019-04-01T23:20:55.572Z,99.90
2019-04-01T23:23:28.359Z,99.90
2019-04-01T23:26:00.696Z,99.90
2019-04-01T23:28:32.817Z,99.90
2019-04-01T23:31:04.913Z,99.90
2019-04-01T23:33:37.017Z,99.90
2019-04-01T23:36:09.007Z,99.90
2019-04-01T23:38:40.828Z,99.90
2019-04-01T23:41:12.893Z,99.90
2019-04-01T23:43:44.739Z,99.90
2019-04-01T23:46:16.616Z,99.90
2019-04-01T23:48:48.407Z,99.90
2019-04-01T23:51:20.679Z,99.90
2019-04-01T23:53:52.337Z,99.90
2019-04-01T23:56:24.235Z,99.90
2019-04-01T23:58:55.938Z,99.90
